sensor_id;sensor_type;location;lat;lon;timestamp;P1;durP1;ratioP1;P2;durP2;ratioP2
20954;SDS011;10636;19.390;-99.256;2024-02-16T00:00:13;2.65;;;2.45;;
20954;SDS011;10636;19.390;-99.256;2024-02-16T00:02:43;3.35;;;2.72;;
20954;SDS011;10636;19.390;-99.256;2024-02-16T00:05:12;4.15;;;2.90;;
20954;SDS011;10636;19.390;-99.256;2024-02-16T00:07:39;2.83;;;2.63;;
20954;SDS011;10636;19.390;-99.256;2024-02-16T00:10:08;3.72;;;2.88;;
20954;SDS011;10636;19.390;-99.256;2024-02-16T00:12:39;3.90;;;2.80;;
20954;SDS011;10636;19.390;-99.256;2024-02-16T00:15:08;3.75;;;3.00;;
20954;SDS011;10636;19.390;-99.256;2024-02-16T00:17:37;3.30;;;2.70;;
20954;SDS011;10636;19.390;-99.256;2024-02-16T00:20:06;3.90;;;2.80;;
20954;SDS011;10636;19.390;-99.256;2024-02-16T00:22:35;2.95;;;2.75;;
20954;SDS011;10636;19.390;-99.256;2024-02-16T00:25:04;3.08;;;2.60;;
20954;SDS011;10636;19.390;-99.256;2024-02-16T00:27:33;3.28;;;2.90;;
20954;SDS011;10636;19.390;-99.256;2024-02-16T00:30:07;4.18;;;2.67;;
20954;SDS011;10636;19.390;-99.256;2024-02-16T00:32:39;2.88;;;2.60;;
20954;SDS011;10636;19.390;-99.256;2024-02-16T00:35:07;3.65;;;2.85;;
20954;SDS011;10636;19.390;-99.256;2024-02-16T00:37:36;2.72;;;2.50;;
20954;SDS011;10636;19.390;-99.256;2024-02-16T00:40:05;3.15;;;2.60;;
20954;SDS011;10636;19.390;-99.256;2024-02-16T00:42:35;4.43;;;2.78;;
20954;SDS011;10636;19.390;-99.256;2024-02-16T00:45:05;3.38;;;2.90;;
20954;SDS011;10636;19.390;-99.256;2024-02-16T00:47:34;3.00;;;2.72;;
20954;SDS011;10636;19.390;-99.256;2024-02-16T00:50:04;4.25;;;2.83;;
20954;SDS011;10636;19.390;-99.256;2024-02-16T00:52:37;3.30;;;2.97;;
20954;SDS011;10636;19.390;-99.256;2024-02-16T00:55:06;3.20;;;2.95;;
20954;SDS011;10636;19.390;-99.256;2024-02-16T00:57:35;4.40;;;3.08;;
20954;SDS011;10636;19.390;-99.256;2024-02-16T01:00:06;3.45;;;2.67;;
20954;SDS011;10636;19.390;-99.256;2024-02-16T01:02:36;3.17;;;2.97;;
20954;SDS011;10636;19.390;-99.256;2024-02-16T01:05:05;3.55;;;3.20;;
20954;SDS011;10636;19.390;-99.256;2024-02-16T01:07:35;5.03;;;3.70;;
20954;SDS011;10636;19.390;-99.256;2024-02-16T01:10:05;5.00;;;3.25;;
20954;SDS011;10636;19.390;-99.256;2024-02-16T01:12:34;3.70;;;3.40;;
20954;SDS011;10636;19.390;-99.256;2024-02-16T01:15:03;3.92;;;3.17;;
20954;SDS011;10636;19.390;-99.256;2024-02-16T01:17:34;3.90;;;3.38;;
20954;SDS011;10636;19.390;-99.256;2024-02-16T01:20:05;3.47;;;3.17;;
20954;SDS011;10636;19.390;-99.256;2024-02-16T01:22:36;3.70;;;3.35;;
20954;SDS011;10636;19.390;-99.256;2024-02-16T01:25:05;4.30;;;3.50;;
20954;SDS011;10636;19.390;-99.256;2024-02-16T01:27:34;4.55;;;3.45;;
20954;SDS011;10636;19.390;-99.256;2024-02-16T01:30:08;4.70;;;3.30;;
20954;SDS011;10636;19.390;-99.256;2024-02-16T01:32:38;4.15;;;3.33;;
20954;SDS011;10636;19.390;-99.256;2024-02-16T01:35:07;3.50;;;3.20;;
20954;SDS011;10636;19.390;-99.256;2024-02-16T01:37:36;4.10;;;3.67;;
20954;SDS011;10636;19.390;-99.256;2024-02-16T01:40:06;4.30;;;3.50;;
20954;SDS011;10636;19.390;-99.256;2024-02-16T01:42:39;5.93;;;3.53;;
20954;SDS011;10636;19.390;-99.256;2024-02-16T01:45:10;3.88;;;3.40;;
20954;SDS011;10636;19.390;-99.256;2024-02-16T01:47:39;4.63;;;3.30;;
20954;SDS011;10636;19.390;-99.256;2024-02-16T01:50:12;4.05;;;3.65;;
20954;SDS011;10636;19.390;-99.256;2024-02-16T01:52:42;5.50;;;3.45;;
20954;SDS011;10636;19.390;-99.256;2024-02-16T01:55:10;4.20;;;3.38;;
20954;SDS011;10636;19.390;-99.256;2024-02-16T01:57:40;4.72;;;3.85;;
20954;SDS011;10636;19.390;-99.256;2024-02-16T02:00:13;3.72;;;3.38;;
20954;SDS011;10636;19.390;-99.256;2024-02-16T02:02:43;5.03;;;3.88;;
20954;SDS011;10636;19.390;-99.256;2024-02-16T02:05:16;5.30;;;4.10;;
20954;SDS011;10636;19.390;-99.256;2024-02-16T02:07:44;4.63;;;4.22;;
20954;SDS011;10636;19.390;-99.256;2024-02-16T02:10:13;4.75;;;3.95;;
20954;SDS011;10636;19.390;-99.256;2024-02-16T02:12:42;4.90;;;4.32;;
20954;SDS011;10636;19.390;-99.256;2024-02-16T02:15:10;5.38;;;4.53;;
20954;SDS011;10636;19.390;-99.256;2024-02-16T02:17:40;4.57;;;4.18;;
20954;SDS011;10636;19.390;-99.256;2024-02-16T02:20:09;5.53;;;4.47;;
20954;SDS011;10636;19.390;-99.256;2024-02-16T02:22:42;6.10;;;4.43;;
20954;SDS011;10636;19.390;-99.256;2024-02-16T02:25:10;6.78;;;4.88;;
20954;SDS011;10636;19.390;-99.256;2024-02-16T02:27:39;4.78;;;4.10;;
20954;SDS011;10636;19.390;-99.256;2024-02-16T02:30:08;6.47;;;5.35;;
20954;SDS011;10636;19.390;-99.256;2024-02-16T02:32:37;5.82;;;4.30;;
20954;SDS011;10636;19.390;-99.256;2024-02-16T02:35:08;6.78;;;5.47;;
20954;SDS011;10636;19.390;-99.256;2024-02-16T02:37:37;8.63;;;6.88;;
20954;SDS011;10636;19.390;-99.256;2024-02-16T02:40:11;7.20;;;6.47;;
20954;SDS011;10636;19.390;-99.256;2024-02-16T02:42:42;9.02;;;6.43;;
20954;SDS011;10636;19.390;-99.256;2024-02-16T02:45:11;7.15;;;5.97;;
20954;SDS011;10636;19.390;-99.256;2024-02-16T02:47:39;10.15;;;9.10;;
20954;SDS011;10636;19.390;-99.256;2024-02-16T02:50:09;18.20;;;16.40;;
20954;SDS011;10636;19.390;-99.256;2024-02-16T02:52:37;19.25;;;17.08;;
20954;SDS011;10636;19.390;-99.256;2024-02-16T02:55:08;17.42;;;14.57;;
20954;SDS011;10636;19.390;-99.256;2024-02-16T02:57:36;15.45;;;13.85;;
20954;SDS011;10636;19.390;-99.256;2024-02-16T03:00:05;14.80;;;13.18;;
20954;SDS011;10636;19.390;-99.256;2024-02-16T03:02:36;13.35;;;11.98;;
20954;SDS011;10636;19.390;-99.256;2024-02-16T03:05:05;12.45;;;11.25;;
20954;SDS011;10636;19.390;-99.256;2024-02-16T03:07:35;12.70;;;11.00;;
20954;SDS011;10636;19.390;-99.256;2024-02-16T03:10:04;16.33;;;11.32;;
20954;SDS011;10636;19.390;-99.256;2024-02-16T03:12:36;13.02;;;10.60;;
20954;SDS011;10636;19.390;-99.256;2024-02-16T03:15:05;14.23;;;10.68;;
20954;SDS011;10636;19.390;-99.256;2024-02-16T03:17:34;12.35;;;10.90;;
20954;SDS011;10636;19.390;-99.256;2024-02-16T03:20:03;10.85;;;9.82;;
20954;SDS011;10636;19.390;-99.256;2024-02-16T03:22:33;12.85;;;10.32;;
20954;SDS011;10636;19.390;-99.256;2024-02-16T03:25:01;12.18;;;9.38;;
20954;SDS011;10636;19.390;-99.256;2024-02-16T03:27:31;10.65;;;9.55;;
20954;SDS011;10636;19.390;-99.256;2024-02-16T03:30:02;10.80;;;9.23;;
20954;SDS011;10636;19.390;-99.256;2024-02-16T03:32:31;9.93;;;8.93;;
20954;SDS011;10636;19.390;-99.256;2024-02-16T03:35:00;10.88;;;8.70;;
20954;SDS011;10636;19.390;-99.256;2024-02-16T03:37:29;9.40;;;8.40;;
20954;SDS011;10636;19.390;-99.256;2024-02-16T03:39:58;11.05;;;8.95;;
20954;SDS011;10636;19.390;-99.256;2024-02-16T03:42:26;8.95;;;8.05;;
20954;SDS011;10636;19.390;-99.256;2024-02-16T03:44:55;9.02;;;8.05;;
20954;SDS011;10636;19.390;-99.256;2024-02-16T03:47:25;9.85;;;7.93;;
20954;SDS011;10636;19.390;-99.256;2024-02-16T03:49:54;8.25;;;7.35;;
20954;SDS011;10636;19.390;-99.256;2024-02-16T03:52:22;9.43;;;6.93;;
20954;SDS011;10636;19.390;-99.256;2024-02-16T03:54:51;9.20;;;7.25;;
20954;SDS011;10636;19.390;-99.256;2024-02-16T03:57:19;8.65;;;7.40;;
20954;SDS011;10636;19.390;-99.256;2024-02-16T03:59:48;9.45;;;7.28;;
20954;SDS011;10636;19.390;-99.256;2024-02-16T04:02:16;9.93;;;7.07;;
20954;SDS011;10636;19.390;-99.256;2024-02-16T04:04:46;8.95;;;7.70;;
20954;SDS011;10636;19.390;-99.256;2024-02-16T04:07:15;9.20;;;7.03;;
20954;SDS011;10636;19.390;-99.256;2024-02-16T04:09:44;8.05;;;7.22;;
20954;SDS011;10636;19.390;-99.256;2024-02-16T04:12:15;8.23;;;7.43;;
20954;SDS011;10636;19.390;-99.256;2024-02-16T04:14:43;8.10;;;7.28;;
20954;SDS011;10636;19.390;-99.256;2024-02-16T04:17:12;7.65;;;6.82;;
20954;SDS011;10636;19.390;-99.256;2024-02-16T04:19:40;8.55;;;6.70;;
20954;SDS011;10636;19.390;-99.256;2024-02-16T04:22:11;8.73;;;7.32;;
20954;SDS011;10636;19.390;-99.256;2024-02-16T04:24:39;8.15;;;7.28;;
20954;SDS011;10636;19.390;-99.256;2024-02-16T04:27:08;9.13;;;6.97;;
20954;SDS011;10636;19.390;-99.256;2024-02-16T04:29:36;8.00;;;6.88;;
20954;SDS011;10636;19.390;-99.256;2024-02-16T04:32:05;7.68;;;6.90;;
20954;SDS011;10636;19.390;-99.256;2024-02-16T04:34:33;7.75;;;6.95;;
20954;SDS011;10636;19.390;-99.256;2024-02-16T04:37:02;7.80;;;7.10;;
20954;SDS011;10636;19.390;-99.256;2024-02-16T04:39:32;7.75;;;6.15;;
20954;SDS011;10636;19.390;-99.256;2024-02-16T04:42:01;7.97;;;6.07;;
20954;SDS011;10636;19.390;-99.256;2024-02-16T04:44:29;7.10;;;6.25;;
20954;SDS011;10636;19.390;-99.256;2024-02-16T04:46:58;8.07;;;6.65;;
20954;SDS011;10636;19.390;-99.256;2024-02-16T04:49:26;6.85;;;6.15;;
20954;SDS011;10636;19.390;-99.256;2024-02-16T04:51:54;8.23;;;7.22;;
20954;SDS011;10636;19.390;-99.256;2024-02-16T04:54:23;8.52;;;6.22;;
20954;SDS011;10636;19.390;-99.256;2024-02-16T04:56:53;7.07;;;6.38;;
20954;SDS011;10636;19.390;-99.256;2024-02-16T04:59:22;7.70;;;6.40;;
20954;SDS011;10636;19.390;-99.256;2024-02-16T05:01:50;8.98;;;6.50;;
20954;SDS011;10636;19.390;-99.256;2024-02-16T05:04:19;7.55;;;6.72;;
20954;SDS011;10636;19.390;-99.256;2024-02-16T05:06:51;6.75;;;6.05;;
20954;SDS011;10636;19.390;-99.256;2024-02-16T05:09:22;6.75;;;6.05;;
20954;SDS011;10636;19.390;-99.256;2024-02-16T05:11:53;7.28;;;5.80;;
20954;SDS011;10636;19.390;-99.256;2024-02-16T05:14:22;7.53;;;6.82;;
20954;SDS011;10636;19.390;-99.256;2024-02-16T05:16:51;7.32;;;6.65;;
20954;SDS011;10636;19.390;-99.256;2024-02-16T05:19:19;8.00;;;6.70;;
20954;SDS011;10636;19.390;-99.256;2024-02-16T05:21:47;7.30;;;6.60;;
20954;SDS011;10636;19.390;-99.256;2024-02-16T05:24:16;7.18;;;6.47;;
20954;SDS011;10636;19.390;-99.256;2024-02-16T05:26:45;7.30;;;6.60;;
20954;SDS011;10636;19.390;-99.256;2024-02-16T05:29:15;6.80;;;5.93;;
20954;SDS011;10636;19.390;-99.256;2024-02-16T05:31:43;6.78;;;6.07;;
20954;SDS011;10636;19.390;-99.256;2024-02-16T05:34:11;7.18;;;6.47;;
20954;SDS011;10636;19.390;-99.256;2024-02-16T05:36:40;7.05;;;6.30;;
20954;SDS011;10636;19.390;-99.256;2024-02-16T05:39:09;7.10;;;6.50;;
20954;SDS011;10636;19.390;-99.256;2024-02-16T05:41:46;7.30;;;6.68;;
20954;SDS011;10636;19.390;-99.256;2024-02-16T05:44:16;6.60;;;6.00;;
20954;SDS011;10636;19.390;-99.256;2024-02-16T05:46:45;6.57;;;5.95;;
20954;SDS011;10636;19.390;-99.256;2024-02-16T05:49:14;5.95;;;5.15;;
20954;SDS011;10636;19.390;-99.256;2024-02-16T05:51:43;6.57;;;5.65;;
20954;SDS011;10636;19.390;-99.256;2024-02-16T05:54:32;6.03;;;5.43;;
20954;SDS011;10636;19.390;-99.256;2024-02-16T05:57:00;6.93;;;6.32;;
20954;SDS011;10636;19.390;-99.256;2024-02-16T05:59:31;6.47;;;5.70;;
20954;SDS011;10636;19.390;-99.256;2024-02-16T06:01:59;6.55;;;5.80;;
20954;SDS011;10636;19.390;-99.256;2024-02-16T06:04:28;6.50;;;5.90;;
20954;SDS011;10636;19.390;-99.256;2024-02-16T06:06:58;6.13;;;5.63;;
20954;SDS011;10636;19.390;-99.256;2024-02-16T06:09:27;6.47;;;5.88;;
20954;SDS011;10636;19.390;-99.256;2024-02-16T06:12:02;6.05;;;5.45;;
20954;SDS011;10636;19.390;-99.256;2024-02-16T06:14:34;6.47;;;5.88;;
20954;SDS011;10636;19.390;-99.256;2024-02-16T06:17:03;6.07;;;5.07;;
20954;SDS011;10636;19.390;-99.256;2024-02-16T06:19:33;5.30;;;4.78;;
20954;SDS011;10636;19.390;-99.256;2024-02-16T06:22:02;6.25;;;5.75;;
20954;SDS011;10636;19.390;-99.256;2024-02-16T06:24:30;7.22;;;6.57;;
20954;SDS011;10636;19.390;-99.256;2024-02-16T06:26:59;6.68;;;6.13;;
20954;SDS011;10636;19.390;-99.256;2024-02-16T06:29:28;5.28;;;4.78;;
20954;SDS011;10636;19.390;-99.256;2024-02-16T06:31:59;7.40;;;6.80;;
20954;SDS011;10636;19.390;-99.256;2024-02-16T06:34:27;6.65;;;5.97;;
20954;SDS011;10636;19.390;-99.256;2024-02-16T06:36:57;6.88;;;6.28;;
20954;SDS011;10636;19.390;-99.256;2024-02-16T06:39:25;6.88;;;6.28;;
20954;SDS011;10636;19.390;-99.256;2024-02-16T06:41:55;6.90;;;6.40;;
20954;SDS011;10636;19.390;-99.256;2024-02-16T06:44:24;7.07;;;6.47;;
20954;SDS011;10636;19.390;-99.256;2024-02-16T06:46:52;5.60;;;4.90;;
20954;SDS011;10636;19.390;-99.256;2024-02-16T06:49:22;5.88;;;4.68;;
20954;SDS011;10636;19.390;-99.256;2024-02-16T06:51:51;5.55;;;5.05;;
20954;SDS011;10636;19.390;-99.256;2024-02-16T06:54:20;6.28;;;5.40;;
20954;SDS011;10636;19.390;-99.256;2024-02-16T06:56:50;5.40;;;4.90;;
20954;SDS011;10636;19.390;-99.256;2024-02-16T06:59:18;6.80;;;6.20;;
20954;SDS011;10636;19.390;-99.256;2024-02-16T07:01:47;6.95;;;5.15;;
20954;SDS011;10636;19.390;-99.256;2024-02-16T07:04:15;6.97;;;6.40;;
20954;SDS011;10636;19.390;-99.256;2024-02-16T07:06:45;6.63;;;5.22;;
20954;SDS011;10636;19.390;-99.256;2024-02-16T07:09:14;7.85;;;7.25;;
20954;SDS011;10636;19.390;-99.256;2024-02-16T07:11:42;8.18;;;7.45;;
20954;SDS011;10636;19.390;-99.256;2024-02-16T07:14:12;8.15;;;7.45;;
20954;SDS011;10636;19.390;-99.256;2024-02-16T07:16:40;7.00;;;6.43;;
20954;SDS011;10636;19.390;-99.256;2024-02-16T07:19:09;7.80;;;5.32;;
20954;SDS011;10636;19.390;-99.256;2024-02-16T07:21:38;6.20;;;5.43;;
20954;SDS011;10636;19.390;-99.256;2024-02-16T07:24:08;7.57;;;5.30;;
20954;SDS011;10636;19.390;-99.256;2024-02-16T07:26:36;6.30;;;5.50;;
20954;SDS011;10636;19.390;-99.256;2024-02-16T07:29:05;7.90;;;7.18;;
20954;SDS011;10636;19.390;-99.256;2024-02-16T07:31:33;8.95;;;8.15;;
20954;SDS011;10636;19.390;-99.256;2024-02-16T07:34:02;8.35;;;7.65;;
20954;SDS011;10636;19.390;-99.256;2024-02-16T07:36:31;8.32;;;7.63;;
20954;SDS011;10636;19.390;-99.256;2024-02-16T07:39:01;8.13;;;7.32;;
20954;SDS011;10636;19.390;-99.256;2024-02-16T07:41:32;7.82;;;7.20;;
20954;SDS011;10636;19.390;-99.256;2024-02-16T07:44:00;9.02;;;8.00;;
20954;SDS011;10636;19.390;-99.256;2024-02-16T07:46:29;8.63;;;8.00;;
20954;SDS011;10636;19.390;-99.256;2024-02-16T07:48:58;8.82;;;8.13;;
20954;SDS011;10636;19.390;-99.256;2024-02-16T07:51:26;9.05;;;8.40;;
20954;SDS011;10636;19.390;-99.256;2024-02-16T07:53:54;8.25;;;7.45;;
20954;SDS011;10636;19.390;-99.256;2024-02-16T07:56:23;8.85;;;8.05;;
20954;SDS011;10636;19.390;-99.256;2024-02-16T07:58:53;7.88;;;5.40;;
20954;SDS011;10636;19.390;-99.256;2024-02-16T08:01:21;6.47;;;5.70;;
20954;SDS011;10636;19.390;-99.256;2024-02-16T08:03:50;6.43;;;5.35;;
20954;SDS011;10636;19.390;-99.256;2024-02-16T08:06:18;9.13;;;8.23;;
20954;SDS011;10636;19.390;-99.256;2024-02-16T08:08:52;9.35;;;8.65;;
20954;SDS011;10636;19.390;-99.256;2024-02-16T08:11:21;8.77;;;8.07;;
20954;SDS011;10636;19.390;-99.256;2024-02-16T08:13:50;6.10;;;5.30;;
20954;SDS011;10636;19.390;-99.256;2024-02-16T08:16:20;7.50;;;5.60;;
20954;SDS011;10636;19.390;-99.256;2024-02-16T08:18:48;8.63;;;6.03;;
20954;SDS011;10636;19.390;-99.256;2024-02-16T08:21:17;9.13;;;8.32;;
20954;SDS011;10636;19.390;-99.256;2024-02-16T08:23:46;9.20;;;8.32;;
20954;SDS011;10636;19.390;-99.256;2024-02-16T08:26:15;9.07;;;8.38;;
20954;SDS011;10636;19.390;-99.256;2024-02-16T08:28:43;6.20;;;5.60;;
20954;SDS011;10636;19.390;-99.256;2024-02-16T08:31:14;8.85;;;8.15;;
20954;SDS011;10636;19.390;-99.256;2024-02-16T08:33:45;7.40;;;5.70;;
20954;SDS011;10636;19.390;-99.256;2024-02-16T08:36:14;9.43;;;8.63;;
20954;SDS011;10636;19.390;-99.256;2024-02-16T08:38:42;9.75;;;8.93;;
20954;SDS011;10636;19.390;-99.256;2024-02-16T08:41:11;7.82;;;5.82;;
20954;SDS011;10636;19.390;-99.256;2024-02-16T08:43:39;6.28;;;5.53;;
20954;SDS011;10636;19.390;-99.256;2024-02-16T08:46:08;6.00;;;5.38;;
20954;SDS011;10636;19.390;-99.256;2024-02-16T08:48:36;7.25;;;5.85;;
20954;SDS011;10636;19.390;-99.256;2024-02-16T08:51:06;7.88;;;5.85;;
20954;SDS011;10636;19.390;-99.256;2024-02-16T08:53:37;6.90;;;6.18;;
20954;SDS011;10636;19.390;-99.256;2024-02-16T08:56:09;8.95;;;8.15;;
20954;SDS011;10636;19.390;-99.256;2024-02-16T08:58:37;8.93;;;8.23;;
20954;SDS011;10636;19.390;-99.256;2024-02-16T09:01:06;9.65;;;8.68;;
20954;SDS011;10636;19.390;-99.256;2024-02-16T09:03:34;9.10;;;8.27;;
20954;SDS011;10636;19.390;-99.256;2024-02-16T09:06:07;9.27;;;8.52;;
20954;SDS011;10636;19.390;-99.256;2024-02-16T09:08:35;9.32;;;8.40;;
20954;SDS011;10636;19.390;-99.256;2024-02-16T09:11:04;8.80;;;8.00;;
20954;SDS011;10636;19.390;-99.256;2024-02-16T09:13:33;8.45;;;7.75;;
20954;SDS011;10636;19.390;-99.256;2024-02-16T09:16:02;8.95;;;8.02;;
20954;SDS011;10636;19.390;-99.256;2024-02-16T09:18:31;8.18;;;5.72;;
20954;SDS011;10636;19.390;-99.256;2024-02-16T09:21:00;7.22;;;6.43;;
20954;SDS011;10636;19.390;-99.256;2024-02-16T09:23:30;7.22;;;6.03;;
20954;SDS011;10636;19.390;-99.256;2024-02-16T09:25:59;9.25;;;8.27;;
20954;SDS011;10636;19.390;-99.256;2024-02-16T09:28:28;8.15;;;6.10;;
20954;SDS011;10636;19.390;-99.256;2024-02-16T09:30:57;8.90;;;8.10;;
20954;SDS011;10636;19.390;-99.256;2024-02-16T09:33:25;7.07;;;5.82;;
20954;SDS011;10636;19.390;-99.256;2024-02-16T09:35:54;9.40;;;8.50;;
20954;SDS011;10636;19.390;-99.256;2024-02-16T09:38:22;7.00;;;5.93;;
20954;SDS011;10636;19.390;-99.256;2024-02-16T09:40:52;7.00;;;6.00;;
20954;SDS011;10636;19.390;-99.256;2024-02-16T09:43:27;7.25;;;6.13;;
20954;SDS011;10636;19.390;-99.256;2024-02-16T09:45:57;7.15;;;6.45;;
20954;SDS011;10636;19.390;-99.256;2024-02-16T09:48:27;9.27;;;8.48;;
20954;SDS011;10636;19.390;-99.256;2024-02-16T09:50:56;7.80;;;6.22;;
20954;SDS011;10636;19.390;-99.256;2024-02-16T09:53:26;7.88;;;6.10;;
20954;SDS011;10636;19.390;-99.256;2024-02-16T09:55:57;9.55;;;8.45;;
20954;SDS011;10636;19.390;-99.256;2024-02-16T09:58:27;9.32;;;8.43;;
20954;SDS011;10636;19.390;-99.256;2024-02-16T10:00:55;6.90;;;6.30;;
20954;SDS011;10636;19.390;-99.256;2024-02-16T10:03:24;9.32;;;8.18;;
20954;SDS011;10636;19.390;-99.256;2024-02-16T10:06:03;8.70;;;7.90;;
20954;SDS011;10636;19.390;-99.256;2024-02-16T10:08:33;8.10;;;7.30;;
20954;SDS011;10636;19.390;-99.256;2024-02-16T10:11:02;7.78;;;7.07;;
20954;SDS011;10636;19.390;-99.256;2024-02-16T10:13:31;7.95;;;7.15;;
20954;SDS011;10636;19.390;-99.256;2024-02-16T10:16:06;8.50;;;7.70;;
20954;SDS011;10636;19.390;-99.256;2024-02-16T10:18:37;8.15;;;7.40;;
20954;SDS011;10636;19.390;-99.256;2024-02-16T10:21:06;9.20;;;7.20;;
20954;SDS011;10636;19.390;-99.256;2024-02-16T10:23:36;8.18;;;6.60;;
20954;SDS011;10636;19.390;-99.256;2024-02-16T10:26:06;7.60;;;6.38;;
20954;SDS011;10636;19.390;-99.256;2024-02-16T10:28:34;8.05;;;7.20;;
20954;SDS011;10636;19.390;-99.256;2024-02-16T10:31:03;8.55;;;6.43;;
20954;SDS011;10636;19.390;-99.256;2024-02-16T10:33:32;7.63;;;6.93;;
20954;SDS011;10636;19.390;-99.256;2024-02-16T10:36:02;7.97;;;7.18;;
20954;SDS011;10636;19.390;-99.256;2024-02-16T10:38:33;10.02;;;6.55;;
20954;SDS011;10636;19.390;-99.256;2024-02-16T10:41:02;8.30;;;7.50;;
20954;SDS011;10636;19.390;-99.256;2024-02-16T10:43:33;7.45;;;6.75;;
20954;SDS011;10636;19.390;-99.256;2024-02-16T10:46:02;7.60;;;6.90;;
20954;SDS011;10636;19.390;-99.256;2024-02-16T10:48:31;8.07;;;7.13;;
20954;SDS011;10636;19.390;-99.256;2024-02-16T10:50:59;9.02;;;6.90;;
20954;SDS011;10636;19.390;-99.256;2024-02-16T10:53:28;7.35;;;6.65;;
20954;SDS011;10636;19.390;-99.256;2024-02-16T10:55:58;7.47;;;6.78;;
20954;SDS011;10636;19.390;-99.256;2024-02-16T10:58:28;6.82;;;6.13;;
20954;SDS011;10636;19.390;-99.256;2024-02-16T11:01:07;7.18;;;6.47;;
20954;SDS011;10636;19.390;-99.256;2024-02-16T11:03:37;7.18;;;6.10;;
20954;SDS011;10636;19.390;-99.256;2024-02-16T11:06:14;7.22;;;6.25;;
20954;SDS011;10636;19.390;-99.256;2024-02-16T11:08:43;7.75;;;7.07;;
20954;SDS011;10636;19.390;-99.256;2024-02-16T11:11:22;7.70;;;7.00;;
20954;SDS011;10636;19.390;-99.256;2024-02-16T11:13:53;7.47;;;6.78;;
20954;SDS011;10636;19.390;-99.256;2024-02-16T11:16:24;7.25;;;6.65;;
20954;SDS011;10636;19.390;-99.256;2024-02-16T11:18:53;7.22;;;6.50;;
20954;SDS011;10636;19.390;-99.256;2024-02-16T11:21:21;9.20;;;6.82;;
20954;SDS011;10636;19.390;-99.256;2024-02-16T11:23:50;7.82;;;6.80;;
20954;SDS011;10636;19.390;-99.256;2024-02-16T11:26:19;7.82;;;7.13;;
20954;SDS011;10636;19.390;-99.256;2024-02-16T11:28:50;7.68;;;6.97;;
20954;SDS011;10636;19.390;-99.256;2024-02-16T11:31:19;8.02;;;7.22;;
20954;SDS011;10636;19.390;-99.256;2024-02-16T11:33:49;7.53;;;6.82;;
20954;SDS011;10636;19.390;-99.256;2024-02-16T11:36:18;7.63;;;6.85;;
20954;SDS011;10636;19.390;-99.256;2024-02-16T11:38:49;7.65;;;6.53;;
20954;SDS011;10636;19.390;-99.256;2024-02-16T11:41:18;7.22;;;6.22;;
20954;SDS011;10636;19.390;-99.256;2024-02-16T11:43:48;8.00;;;6.95;;
20954;SDS011;10636;19.390;-99.256;2024-02-16T11:46:16;7.15;;;6.45;;
20954;SDS011;10636;19.390;-99.256;2024-02-16T11:48:45;8.65;;;6.72;;
20954;SDS011;10636;19.390;-99.256;2024-02-16T11:51:16;9.15;;;7.78;;
20954;SDS011;10636;19.390;-99.256;2024-02-16T11:53:44;7.68;;;6.70;;
20954;SDS011;10636;19.390;-99.256;2024-02-16T11:56:22;11.30;;;10.40;;
20954;SDS011;10636;19.390;-99.256;2024-02-16T11:58:51;13.25;;;12.13;;
20954;SDS011;10636;19.390;-99.256;2024-02-16T12:01:20;18.70;;;17.23;;
20954;SDS011;10636;19.390;-99.256;2024-02-16T12:03:49;13.80;;;12.45;;
20954;SDS011;10636;19.390;-99.256;2024-02-16T12:06:22;20.65;;;19.30;;
20954;SDS011;10636;19.390;-99.256;2024-02-16T12:08:50;25.40;;;23.58;;
20954;SDS011;10636;19.390;-99.256;2024-02-16T12:11:19;28.85;;;27.00;;
20954;SDS011;10636;19.390;-99.256;2024-02-16T12:13:48;29.98;;;28.13;;
20954;SDS011;10636;19.390;-99.256;2024-02-16T12:16:18;11.07;;;10.07;;
20954;SDS011;10636;19.390;-99.256;2024-02-16T12:18:47;32.35;;;30.38;;
20954;SDS011;10636;19.390;-99.256;2024-02-16T12:21:17;41.50;;;39.28;;
20954;SDS011;10636;19.390;-99.256;2024-02-16T12:23:48;39.85;;;37.63;;
20954;SDS011;10636;19.390;-99.256;2024-02-16T12:26:16;36.72;;;34.70;;
20954;SDS011;10636;19.390;-99.256;2024-02-16T12:28:45;42.55;;;40.28;;
20954;SDS011;10636;19.390;-99.256;2024-02-16T12:31:18;37.25;;;35.17;;
20954;SDS011;10636;19.390;-99.256;2024-02-16T12:33:47;40.00;;;37.83;;
20954;SDS011;10636;19.390;-99.256;2024-02-16T12:36:15;42.63;;;40.22;;
20954;SDS011;10636;19.390;-99.256;2024-02-16T12:38:44;40.17;;;37.90;;
20954;SDS011;10636;19.390;-99.256;2024-02-16T12:41:14;42.75;;;40.45;;
20954;SDS011;10636;19.390;-99.256;2024-02-16T12:43:43;38.85;;;36.47;;
20954;SDS011;10636;19.390;-99.256;2024-02-16T12:46:11;40.63;;;38.42;;
20954;SDS011;10636;19.390;-99.256;2024-02-16T12:48:42;38.38;;;36.38;;
20954;SDS011;10636;19.390;-99.256;2024-02-16T12:51:11;34.15;;;32.25;;
20954;SDS011;10636;19.390;-99.256;2024-02-16T12:53:39;38.25;;;36.15;;
20954;SDS011;10636;19.390;-99.256;2024-02-16T12:56:08;35.22;;;33.08;;
20954;SDS011;10636;19.390;-99.256;2024-02-16T12:58:39;34.30;;;32.28;;
20954;SDS011;10636;19.390;-99.256;2024-02-16T13:01:07;31.05;;;29.17;;
20954;SDS011;10636;19.390;-99.256;2024-02-16T13:03:36;11.23;;;9.63;;
20954;SDS011;10636;19.390;-99.256;2024-02-16T13:06:05;30.02;;;28.13;;
20954;SDS011;10636;19.390;-99.256;2024-02-16T13:08:34;32.50;;;30.67;;
20954;SDS011;10636;19.390;-99.256;2024-02-16T13:11:02;29.05;;;27.30;;
20954;SDS011;10636;19.390;-99.256;2024-02-16T13:13:32;30.45;;;28.65;;
20954;SDS011;10636;19.390;-99.256;2024-02-16T13:16:02;27.23;;;25.63;;
20954;SDS011;10636;19.390;-99.256;2024-02-16T13:18:30;27.27;;;25.67;;
20954;SDS011;10636;19.390;-99.256;2024-02-16T13:20:59;27.58;;;25.88;;
20954;SDS011;10636;19.390;-99.256;2024-02-16T13:23:27;28.95;;;27.35;;
20954;SDS011;10636;19.390;-99.256;2024-02-16T13:25:56;30.75;;;29.02;;
20954;SDS011;10636;19.390;-99.256;2024-02-16T13:28:25;31.20;;;29.42;;
20954;SDS011;10636;19.390;-99.256;2024-02-16T13:30:55;35.72;;;33.72;;
20954;SDS011;10636;19.390;-99.256;2024-02-16T13:33:25;33.42;;;31.30;;
20954;SDS011;10636;19.390;-99.256;2024-02-16T13:35:54;35.05;;;32.88;;
20954;SDS011;10636;19.390;-99.256;2024-02-16T13:38:22;34.15;;;32.15;;
20954;SDS011;10636;19.390;-99.256;2024-02-16T13:40:51;36.08;;;34.00;;
20954;SDS011;10636;19.390;-99.256;2024-02-16T13:43:19;37.58;;;35.58;;
20954;SDS011;10636;19.390;-99.256;2024-02-16T13:45:48;38.13;;;35.85;;
20954;SDS011;10636;19.390;-99.256;2024-02-16T13:48:18;40.28;;;38.03;;
20954;SDS011;10636;19.390;-99.256;2024-02-16T13:50:49;44.97;;;42.58;;
20954;SDS011;10636;19.390;-99.256;2024-02-16T13:53:18;44.40;;;42.00;;
20954;SDS011;10636;19.390;-99.256;2024-02-16T13:55:48;39.10;;;37.03;;
20954;SDS011;10636;19.390;-99.256;2024-02-16T13:58:17;42.42;;;40.13;;
20954;SDS011;10636;19.390;-99.256;2024-02-16T14:00:45;40.10;;;37.92;;
20954;SDS011;10636;19.390;-99.256;2024-02-16T14:03:14;39.10;;;37.10;;
20954;SDS011;10636;19.390;-99.256;2024-02-16T14:05:43;41.50;;;39.33;;
20954;SDS011;10636;19.390;-99.256;2024-02-16T14:08:15;10.68;;;8.00;;
20954;SDS011;10636;19.390;-99.256;2024-02-16T14:10:44;41.30;;;38.83;;
20954;SDS011;10636;19.390;-99.256;2024-02-16T14:13:13;39.05;;;36.88;;
20954;SDS011;10636;19.390;-99.256;2024-02-16T14:15:42;39.72;;;37.45;;
20954;SDS011;10636;19.390;-99.256;2024-02-16T14:18:11;39.97;;;37.78;;
20954;SDS011;10636;19.390;-99.256;2024-02-16T14:20:39;42.15;;;39.85;;
20954;SDS011;10636;19.390;-99.256;2024-02-16T14:23:08;38.28;;;36.15;;
20954;SDS011;10636;19.390;-99.256;2024-02-16T14:25:38;41.78;;;39.58;;
20954;SDS011;10636;19.390;-99.256;2024-02-16T14:28:06;41.75;;;39.38;;